createdAt,value
2019-05-29T00:01:29.656Z,1.30
2019-05-29T00:03:56.907Z,1.27
2019-05-29T00:06:24.224Z,1.60
2019-05-29T00:08:51.573Z,1.10
2019-05-29T00:11:18.686Z,1.20
2019-05-29T00:13:46.019Z,1.17
2019-05-29T00:16:14.412Z,1.30
2019-05-29T00:18:41.834Z,1.40
2019-05-29T00:21:11.551Z,2.07
2019-05-29T00:23:38.213Z,1.27
2019-05-29T00:26:06.314Z,1.10
2019-05-29T00:28:33.764Z,1.43
2019-05-29T00:31:00.999Z,1.40
2019-05-29T00:33:28.228Z,1.30
2019-05-29T00:35:55.560Z,1.27
2019-05-29T00:38:22.787Z,1.40
2019-05-29T00:40:50.023Z,1.30
2019-05-29T00:43:17.616Z,1.00
2019-05-29T00:45:44.971Z,0.80
2019-05-29T00:48:12.284Z,1.20
2019-05-29T00:50:39.651Z,1.30
2019-05-29T00:53:08.044Z,1.43
2019-05-29T00:55:35.412Z,1.40
2019-05-29T00:58:02.773Z,1.50
2019-05-29T01:00:30.123Z,1.43
2019-05-29T01:02:57.468Z,1.33
2019-05-29T01:05:24.670Z,1.27
2019-05-29T01:07:52.047Z,1.53
2019-05-29T01:10:19.410Z,1.40
2019-05-29T01:12:46.749Z,1.20
2019-05-29T01:15:15.417Z,1.00
2019-05-29T01:17:42.845Z,1.23
2019-05-29T01:20:11.834Z,1.53
2019-05-29T01:22:39.204Z,1.33
2019-05-29T01:25:06.605Z,1.10
2019-05-29T01:27:33.854Z,1.20
2019-05-29T01:30:01.180Z,1.30
2019-05-29T01:32:28.510Z,1.20
2019-05-29T01:34:55.721Z,1.30
2019-05-29T01:37:22.940Z,1.30
2019-05-29T01:39:50.288Z,1.10
2019-05-29T01:42:17.505Z,1.40
2019-05-29T01:44:44.881Z,1.30
2019-05-29T01:47:12.195Z,1.20
2019-05-29T01:49:39.299Z,1.47
2019-05-29T01:52:06.554Z,1.30
2019-05-29T01:54:33.878Z,1.30
2019-05-29T01:57:01.212Z,1.17
2019-05-29T01:59:28.427Z,1.50
2019-05-29T02:01:55.790Z,1.40
2019-05-29T02:04:24.218Z,1.70
2019-05-29T02:06:51.631Z,1.30
2019-05-29T02:09:20.150Z,1.27
2019-05-29T02:11:47.636Z,1.57
2019-05-29T02:14:14.975Z,1.27
2019-05-29T02:16:42.218Z,1.30
2019-05-29T02:19:09.554Z,1.50
2019-05-29T02:21:37.086Z,1.50
2019-05-29T02:24:04.511Z,1.30
2019-05-29T02:26:31.833Z,1.40
2019-05-29T02:28:59.190Z,1.03
2019-05-29T02:31:28.698Z,1.17
2019-05-29T02:33:55.676Z,1.70
2019-05-29T02:36:24.571Z,0.73
2019-05-29T02:38:52.141Z,1.60
2019-05-29T02:41:21.164Z,1.50
2019-05-29T02:43:48.788Z,1.67
2019-05-29T02:46:16.133Z,1.37
2019-05-29T02:48:43.471Z,1.90
2019-05-29T02:51:12.248Z,1.37
2019-05-29T02:53:39.736Z,1.37
2019-05-29T02:56:07.052Z,1.50
2019-05-29T02:58:34.317Z,1.00
2019-05-29T03:01:01.718Z,1.53
2019-05-29T03:03:33.016Z,1.07
2019-05-29T03:05:58.368Z,1.57
2019-05-29T03:08:27.109Z,1.07
2019-05-29T03:10:54.844Z,1.80
2019-05-29T03:13:23.162Z,1.40
2019-05-29T03:16:08.489Z,1.40
2019-05-29T03:18:19.842Z,1.53
2019-05-29T03:20:47.177Z,1.43
2019-05-29T03:23:14.721Z,1.40
2019-05-29T03:25:42.036Z,1.30
2019-05-29T03:28:09.401Z,1.40
2019-05-29T03:30:44.159Z,1.60
2019-05-29T03:33:05.890Z,1.50
2019-05-29T03:35:39.871Z,1.47
2019-05-29T03:38:02.561Z,1.40
2019-05-29T03:40:31.627Z,1.47
2019-05-29T03:42:59.052Z,1.27
2019-05-29T03:45:26.739Z,1.60
2019-05-29T03:47:54.645Z,1.40
2019-05-29T03:50:21.994Z,2.10
2019-05-29T03:52:49.317Z,1.40
2019-05-29T03:55:16.660Z,1.27
2019-05-29T03:57:43.975Z,1.40
2019-05-29T04:00:11.415Z,1.47
2019-05-29T04:02:38.735Z,1.10
2019-05-29T04:05:07.592Z,1.30
2019-05-29T04:07:35.653Z,2.07
2019-05-29T04:10:04.064Z,1.17
2019-05-29T04:12:31.445Z,1.33
2019-05-29T04:14:58.816Z,1.10
2019-05-29T04:17:27.287Z,1.20
2019-05-29T04:19:54.888Z,1.43
2019-05-29T04:22:27.943Z,1.07
2019-05-29T04:24:57.398Z,1.30
2019-05-29T04:27:27.855Z,1.10
2019-05-29T04:29:58.773Z,0.90
2019-05-29T04:32:26.016Z,1.10
2019-05-29T04:34:53.397Z,1.07
2019-05-29T04:37:20.672Z,1.30
2019-05-29T04:39:48.057Z,1.13
2019-05-29T04:42:15.296Z,1.20
2019-05-29T04:44:42.657Z,1.20
2019-05-29T04:47:11.986Z,1.00
2019-05-29T04:49:39.882Z,1.00
2019-05-29T04:52:07.345Z,1.50
2019-05-29T04:54:37.661Z,1.47
2019-05-29T04:57:05.117Z,1.30
2019-05-29T04:59:33.033Z,1.00
2019-05-29T05:02:00.383Z,0.97
2019-05-29T05:04:29.012Z,0.83
2019-05-29T05:06:56.543Z,1.00
2019-05-29T05:09:23.783Z,1.10
2019-05-29T05:11:51.411Z,0.80
2019-05-29T05:14:18.656Z,0.90
2019-05-29T05:16:46.307Z,0.70
2019-05-29T05:19:16.766Z,0.50
2019-05-29T05:21:42.589Z,0.70
2019-05-29T05:24:09.907Z,1.00
2019-05-29T05:26:38.355Z,0.90
2019-05-29T05:29:05.868Z,1.37
2019-05-29T05:31:34.858Z,0.90
2019-05-29T05:34:02.329Z,0.70
2019-05-29T05:36:30.643Z,0.67
2019-05-29T05:38:57.920Z,0.50
2019-05-29T05:41:25.300Z,0.83
2019-05-29T05:43:52.613Z,0.60
2019-05-29T05:46:19.946Z,0.70
2019-05-29T05:48:47.179Z,0.87
2019-05-29T05:51:14.416Z,0.80
2019-05-29T05:53:41.887Z,0.60
2019-05-29T05:56:09.280Z,0.97
2019-05-29T05:58:37.731Z,0.83
2019-05-29T06:01:05.176Z,0.87
2019-05-29T06:03:33.827Z,0.60
2019-05-29T06:06:01.340Z,0.73
2019-05-29T06:08:28.687Z,0.50
2019-05-29T06:10:56.003Z,0.60
2019-05-29T06:13:23.285Z,0.70
2019-05-29T06:15:50.615Z,0.70
2019-05-29T06:18:21.514Z,0.80
2019-05-29T06:20:46.860Z,0.83
2019-05-29T06:23:14.183Z,0.70
2019-05-29T06:25:42.436Z,0.90
2019-05-29T06:28:10.662Z,0.87
2019-05-29T06:30:39.315Z,0.57
2019-05-29T06:33:07.424Z,0.70
2019-05-29T06:35:35.861Z,0.50
2019-05-29T06:38:03.388Z,0.57
2019-05-29T06:40:36.441Z,1.03
2019-05-29T06:43:06.541Z,0.87
2019-05-29T06:45:35.783Z,0.80
2019-05-29T06:48:05.405Z,0.83
2019-05-29T06:50:32.607Z,0.93
2019-05-29T06:52:59.833Z,0.80
2019-05-29T06:55:27.159Z,0.57
2019-05-29T06:57:54.467Z,0.70
2019-05-29T07:00:35.037Z,1.00
2019-05-29T07:02:51.224Z,0.70
2019-05-29T07:05:18.553Z,0.50
2019-05-29T07:07:46.559Z,0.50
2019-05-29T07:10:13.953Z,0.60
2019-05-29T07:12:42.393Z,0.80
2019-05-29T07:15:09.773Z,0.90
2019-05-29T07:17:38.411Z,0.73
2019-05-29T07:20:06.145Z,0.50
2019-05-29T07:22:33.500Z,0.80
2019-05-29T07:25:00.707Z,1.00
2019-05-29T07:27:28.423Z,0.50
2019-05-29T07:29:55.756Z,0.70
2019-05-29T07:32:23.125Z,0.87
2019-05-29T07:35:02.800Z,0.70
2019-05-29T07:37:19.585Z,0.57
2019-05-29T07:39:47.747Z,0.73
2019-05-29T07:42:15.149Z,0.87
2019-05-29T07:44:42.529Z,0.70
2019-05-29T07:47:10.086Z,0.37
2019-05-29T07:49:39.830Z,0.87
2019-05-29T07:52:06.572Z,0.80
2019-05-29T07:54:33.888Z,0.67
2019-05-29T07:57:01.230Z,0.60
2019-05-29T07:59:28.752Z,0.70
2019-05-29T08:01:56.069Z,0.67
2019-05-29T08:04:23.400Z,0.77
2019-05-29T08:06:54.320Z,0.40
2019-05-29T08:09:19.832Z,0.77
2019-05-29T08:11:47.707Z,0.50
2019-05-29T08:14:15.016Z,0.60
2019-05-29T08:16:43.914Z,0.70
2019-05-29T08:19:11.372Z,0.80
2019-05-29T08:21:38.613Z,0.47
2019-05-29T08:24:05.942Z,0.60
2019-05-29T08:26:33.267Z,0.60
2019-05-29T08:29:00.725Z,0.60
2019-05-29T08:31:28.072Z,0.50
2019-05-29T08:33:55.285Z,1.23
2019-05-29T08:36:22.636Z,0.90
2019-05-29T08:38:49.837Z,0.60
2019-05-29T08:41:17.051Z,0.77
2019-05-29T08:43:45.334Z,0.50
2019-05-29T08:46:13.516Z,0.80
2019-05-29T08:48:41.766Z,0.40
2019-05-29T08:51:09.311Z,0.50
2019-05-29T08:53:36.636Z,0.63
2019-05-29T08:56:04.115Z,0.83
2019-05-29T08:58:31.414Z,0.67
2019-05-29T09:00:58.784Z,0.80
2019-05-29T09:03:26.074Z,0.50
2019-05-29T09:06:06.839Z,0.40
2019-05-29T09:08:22.555Z,1.10
2019-05-29T09:10:51.270Z,0.53
2019-05-29T09:13:18.964Z,0.47
2019-05-29T09:15:46.205Z,0.70
2019-05-29T09:18:13.622Z,0.73
2019-05-29T09:21:00.998Z,0.90
2019-05-29T09:23:10.094Z,0.93
2019-05-29T09:25:37.469Z,0.60
2019-05-29T09:28:14.021Z,0.57
2019-05-29T09:30:41.260Z,0.90
2019-05-29T09:33:08.555Z,0.50
2019-05-29T09:35:35.877Z,0.23
2019-05-29T09:38:03.124Z,0.90
2019-05-29T09:40:30.436Z,0.43
2019-05-29T09:42:57.847Z,0.50
2019-05-29T09:45:25.579Z,0.50
2019-05-29T09:47:52.952Z,0.60
2019-05-29T09:50:22.758Z,0.30
2019-05-29T09:52:49.488Z,0.40
2019-05-29T09:55:17.187Z,0.70
2019-05-29T09:57:44.601Z,0.77
2019-05-29T10:00:12.125Z,0.60
2019-05-29T10:02:39.444Z,0.80
2019-05-29T10:05:07.515Z,0.27
2019-05-29T10:07:34.839Z,0.70
2019-05-29T10:10:03.663Z,0.60
2019-05-29T10:12:31.305Z,0.37
2019-05-29T10:14:59.590Z,0.67
2019-05-29T10:17:27.768Z,0.73
2019-05-29T10:19:55.903Z,0.37
2019-05-29T10:22:24.122Z,0.53
2019-05-29T10:24:51.386Z,0.70
2019-05-29T10:27:18.626Z,0.33
2019-05-29T10:29:48.847Z,0.57
2019-05-29T10:32:15.112Z,0.60
2019-05-29T10:34:42.477Z,0.93
2019-05-29T10:37:09.780Z,0.50
2019-05-29T10:39:37.095Z,0.67
2019-05-29T10:42:04.345Z,0.97
2019-05-29T10:44:31.549Z,0.60
2019-05-29T10:46:58.808Z,0.70
2019-05-29T10:49:26.129Z,0.70
2019-05-29T10:52:05.721Z,0.57
2019-05-29T10:54:22.665Z,0.50
2019-05-29T10:56:50.853Z,0.60
2019-05-29T10:59:18.323Z,0.80
2019-05-29T11:01:46.916Z,0.70
2019-05-29T11:04:14.407Z,0.87
2019-05-29T11:06:41.760Z,0.93
2019-05-29T11:09:09.089Z,0.50
2019-05-29T11:11:36.421Z,0.50
2019-05-29T11:14:03.824Z,0.30
2019-05-29T11:16:31.264Z,0.20
2019-05-29T11:18:58.487Z,0.40
2019-05-29T11:21:25.743Z,0.70
2019-05-29T11:23:53.872Z,0.57
2019-05-29T11:26:21.279Z,0.40
2019-05-29T11:28:48.598Z,0.30
2019-05-29T11:31:15.960Z,0.37
2019-05-29T11:33:43.212Z,0.53
2019-05-29T11:36:13.335Z,0.43
2019-05-29T11:38:39.657Z,0.60
2019-05-29T11:41:25.026Z,0.50
2019-05-29T11:43:36.173Z,0.57
2019-05-29T11:46:03.598Z,0.50
2019-05-29T11:48:30.824Z,4.70
2019-05-29T11:50:58.325Z,4.60
2019-05-29T11:53:25.683Z,11.80
2019-05-29T11:55:54.024Z,3.63
2019-05-29T11:58:31.277Z,0.47
2019-05-29T12:00:50.762Z,0.80
2019-05-29T12:03:18.015Z,0.40
2019-05-29T12:05:45.276Z,0.33
2019-05-29T12:08:12.503Z,0.67
2019-05-29T12:10:39.860Z,1.00
2019-05-29T12:13:07.215Z,15.03
2019-05-29T12:15:34.453Z,9.97
2019-05-29T12:18:19.994Z,19.93
2019-05-29T12:20:30.989Z,8.43
2019-05-29T12:23:19.804Z,1.10
2019-05-29T12:25:27.496Z,0.80
2019-05-29T12:27:55.300Z,1.10
2019-05-29T12:30:23.601Z,0.70
2019-05-29T12:32:50.919Z,0.80
2019-05-29T12:35:18.264Z,0.43
2019-05-29T12:37:45.571Z,0.73
2019-05-29T12:40:13.124Z,0.30
2019-05-29T12:42:44.608Z,0.37
2019-05-29T12:45:09.984Z,0.70
2019-05-29T12:47:37.271Z,3.20
2019-05-29T12:50:06.951Z,2.77
2019-05-29T12:52:34.188Z,0.80
2019-05-29T12:55:02.453Z,0.50
2019-05-29T12:57:29.902Z,0.60
2019-05-29T12:59:58.015Z,0.50
2019-05-29T13:02:25.384Z,0.60
2019-05-29T13:05:16.264Z,0.70
2019-05-29T13:07:21.768Z,3.83
2019-05-29T13:09:49.089Z,2.70
2019-05-29T13:12:16.408Z,1.00
2019-05-29T13:14:43.720Z,1.13
2019-05-29T13:17:11.094Z,0.70
2019-05-29T13:19:38.399Z,0.50
2019-05-29T13:22:06.484Z,0.60
2019-05-29T13:24:33.961Z,0.70
2019-05-29T13:27:01.842Z,0.40
2019-05-29T13:29:29.243Z,0.30
2019-05-29T13:31:57.997Z,0.60
2019-05-29T13:34:25.612Z,0.77
2019-05-29T13:36:52.993Z,0.73
2019-05-29T13:39:20.381Z,0.60
2019-05-29T13:41:47.614Z,0.33
2019-05-29T13:44:14.984Z,0.70
2019-05-29T13:46:42.292Z,1.30
2019-05-29T13:49:09.655Z,1.10
2019-05-29T13:51:36.959Z,2.83
2019-05-29T13:54:11.773Z,2.20
2019-05-29T13:56:33.434Z,1.83
2019-05-29T13:59:01.949Z,0.90
2019-05-29T14:01:29.516Z,0.70
2019-05-29T14:03:58.065Z,24.80
2019-05-29T14:06:25.589Z,4.97
2019-05-29T14:08:52.896Z,2.37
2019-05-29T14:11:20.240Z,1.00
2019-05-29T14:13:47.561Z,0.57
2019-05-29T14:16:14.905Z,0.47
2019-05-29T14:18:42.294Z,0.57
2019-05-29T14:21:09.590Z,0.63
2019-05-29T14:23:39.491Z,0.50
2019-05-29T14:26:06.449Z,0.70
2019-05-29T14:28:33.919Z,0.20
2019-05-29T14:31:01.840Z,0.50
2019-05-29T14:33:29.293Z,0.60
2019-05-29T14:35:56.612Z,0.80
2019-05-29T14:38:24.048Z,0.50
2019-05-29T14:40:51.281Z,0.40
2019-05-29T14:43:18.652Z,9.00
2019-05-29T14:45:45.863Z,7.57
2019-05-29T14:48:13.340Z,4.10
2019-05-29T14:50:40.722Z,1.83
2019-05-29T14:53:09.409Z,0.90
2019-05-29T14:55:37.179Z,0.97
2019-05-29T14:58:05.635Z,0.93
2019-05-29T15:00:33.124Z,2.07
2019-05-29T15:03:00.340Z,3.50
2019-05-29T15:05:27.593Z,3.30
2019-05-29T15:07:54.956Z,3.97
2019-05-29T15:10:27.245Z,8.20
2019-05-29T15:12:51.609Z,2.10
2019-05-29T15:15:19.252Z,0.30
2019-05-29T15:17:46.604Z,0.80
2019-05-29T15:20:16.882Z,0.53
2019-05-29T15:22:44.502Z,0.53
2019-05-29T15:25:21.017Z,0.50
2019-05-29T15:27:41.359Z,2.70
2019-05-29T15:30:11.320Z,1.17
2019-05-29T15:32:39.135Z,0.67
2019-05-29T15:35:12.758Z,0.70
2019-05-29T15:37:37.210Z,0.47
2019-05-29T15:40:06.537Z,0.30
2019-05-29T15:42:33.982Z,0.43
2019-05-29T15:45:01.333Z,0.80
2019-05-29T15:47:28.690Z,0.70
2019-05-29T15:49:56.007Z,0.63
2019-05-29T15:52:23.259Z,10.83
2019-05-29T15:54:50.580Z,3.33
2019-05-29T15:57:18.028Z,3.03
2019-05-29T15:59:45.352Z,1.70
2019-05-29T16:02:13.686Z,3.33
2019-05-29T16:04:41.250Z,3.53
2019-05-29T16:07:09.772Z,5.03
2019-05-29T16:09:37.198Z,4.13
2019-05-29T16:12:04.518Z,5.20
2019-05-29T16:14:31.742Z,2.83
2019-05-29T16:16:59.056Z,6.57
2019-05-29T16:19:26.412Z,8.43
2019-05-29T16:21:53.856Z,7.53
2019-05-29T16:24:21.222Z,2.40
2019-05-29T16:26:48.539Z,1.40
2019-05-29T16:29:17.513Z,1.10
2019-05-29T16:31:45.028Z,10.47
2019-05-29T16:34:12.354Z,3.10
2019-05-29T16:36:39.728Z,1.13
2019-05-29T16:39:07.359Z,0.97
2019-05-29T16:41:34.718Z,0.90
2019-05-29T16:44:01.882Z,0.80
2019-05-29T16:46:29.224Z,0.70
2019-05-29T16:48:56.574Z,0.57
2019-05-29T16:51:23.907Z,0.90
2019-05-29T16:53:51.245Z,0.90
2019-05-29T16:56:18.967Z,1.53
2019-05-29T16:58:46.422Z,0.80
2019-05-29T17:01:13.745Z,0.90
2019-05-29T17:03:41.084Z,0.63
2019-05-29T17:06:08.329Z,0.53
2019-05-29T17:08:35.659Z,4.10
2019-05-29T17:11:05.002Z,10.47
2019-05-29T17:13:32.341Z,4.13
2019-05-29T17:15:59.652Z,2.30
2019-05-29T17:18:26.974Z,14.03
2019-05-29T17:20:54.189Z,14.53
2019-05-29T17:23:22.818Z,8.47
2019-05-29T17:25:50.290Z,5.27
2019-05-29T17:28:22.393Z,4.20
2019-05-29T17:30:46.764Z,1.33
2019-05-29T17:33:15.093Z,1.13
2019-05-29T17:35:42.531Z,1.50
2019-05-29T17:38:09.863Z,1.53
2019-05-29T17:40:37.190Z,1.63
2019-05-29T17:43:04.563Z,1.60
2019-05-29T17:45:31.857Z,3.60
2019-05-29T17:47:59.196Z,9.23
2019-05-29T17:50:26.782Z,5.93
2019-05-29T17:52:54.167Z,3.13
2019-05-29T17:55:23.248Z,2.97
2019-05-29T17:57:50.664Z,11.33
2019-05-29T18:00:18.586Z,7.60
2019-05-29T18:02:52.045Z,7.47
2019-05-29T18:05:16.404Z,5.50
2019-05-29T18:07:43.847Z,4.87
2019-05-29T18:10:11.385Z,12.07
2019-05-29T18:12:38.596Z,14.83
2019-05-29T18:15:06.842Z,15.57
2019-05-29T18:17:34.144Z,12.53
2019-05-29T18:20:01.534Z,10.43
2019-05-29T18:22:28.768Z,8.33
2019-05-29T18:24:56.132Z,10.80
2019-05-29T18:27:23.913Z,6.07
2019-05-29T18:29:51.357Z,3.50
2019-05-29T18:32:18.704Z,2.60
2019-05-29T18:34:46.043Z,2.57
2019-05-29T18:37:13.386Z,0.90
2019-05-29T18:39:40.812Z,0.97
2019-05-29T18:42:08.147Z,1.10
2019-05-29T18:44:35.509Z,0.83
2019-05-29T18:47:02.745Z,0.90
2019-05-29T18:49:30.083Z,0.90
2019-05-29T18:52:00.280Z,0.80
2019-05-29T18:54:26.438Z,0.80
2019-05-29T18:57:13.822Z,0.90
2019-05-29T18:59:23.208Z,0.90
2019-05-29T19:01:50.613Z,1.00
2019-05-29T19:04:17.980Z,0.80
2019-05-29T19:06:45.219Z,1.17
2019-05-29T19:09:12.463Z,1.10
2019-05-29T19:11:39.704Z,1.10
2019-05-29T19:14:06.960Z,0.93
2019-05-29T19:16:34.391Z,0.87
2019-05-29T19:19:01.749Z,1.00
2019-05-29T19:21:30.246Z,1.00
2019-05-29T19:23:57.852Z,1.00
2019-05-29T19:26:25.185Z,0.83
2019-05-29T19:28:52.532Z,1.07
2019-05-29T19:31:19.776Z,0.87
2019-05-29T19:33:47.216Z,0.73
2019-05-29T19:36:14.472Z,0.70
2019-05-29T19:38:41.825Z,0.97
2019-05-29T19:41:09.160Z,0.90
2019-05-29T19:43:36.482Z,0.83
2019-05-29T19:46:03.993Z,0.70
2019-05-29T19:48:31.303Z,0.90
2019-05-29T19:50:58.549Z,0.70
2019-05-29T19:53:26.881Z,0.90
2019-05-29T19:55:55.003Z,1.00
2019-05-29T19:58:22.240Z,0.93
2019-05-29T20:00:49.476Z,0.90
2019-05-29T20:03:20.007Z,1.00
2019-05-29T20:05:45.731Z,0.87
2019-05-29T20:08:12.956Z,0.70
2019-05-29T20:10:40.296Z,0.90
2019-05-29T20:13:07.627Z,0.77
2019-05-29T20:15:36.007Z,0.90
2019-05-29T20:18:03.624Z,0.80
2019-05-29T20:20:30.867Z,0.80
2019-05-29T20:22:58.184Z,0.90
2019-05-29T20:25:25.466Z,0.70
2019-05-29T20:28:05.447Z,0.90
2019-05-29T20:30:22.012Z,1.10
2019-05-29T20:32:49.285Z,0.90
2019-05-29T20:35:16.703Z,0.80
2019-05-29T20:37:44.852Z,0.90
2019-05-29T20:40:12.417Z,0.90
2019-05-29T20:42:39.748Z,1.20
2019-05-29T20:45:07.498Z,0.90
2019-05-29T20:47:35.574Z,1.03
2019-05-29T20:50:03.572Z,1.00
2019-05-29T20:52:31.108Z,0.77
2019-05-29T20:54:58.860Z,0.70
2019-05-29T20:57:26.234Z,1.03
2019-05-29T20:59:53.576Z,1.00
2019-05-29T21:02:20.781Z,0.90
2019-05-29T21:04:48.134Z,1.00
2019-05-29T21:07:15.431Z,1.00
2019-05-29T21:09:43.322Z,1.00
2019-05-29T21:12:10.680Z,0.90
2019-05-29T21:14:38.016Z,1.20
2019-05-29T21:17:05.727Z,1.03
2019-05-29T21:19:34.018Z,1.00
2019-05-29T21:22:01.379Z,0.90
2019-05-29T21:24:28.725Z,1.10
2019-05-29T21:26:56.049Z,0.87
2019-05-29T21:29:23.422Z,1.00
2019-05-29T21:31:50.736Z,1.10
2019-05-29T21:34:18.064Z,0.90
2019-05-29T21:36:46.374Z,1.10
2019-05-29T21:39:13.810Z,1.20
2019-05-29T21:41:42.469Z,1.27
2019-05-29T21:44:09.995Z,1.47
2019-05-29T21:46:37.239Z,1.07
2019-05-29T21:49:04.582Z,1.03
2019-05-29T21:51:31.934Z,1.10
2019-05-29T21:53:59.344Z,1.00
2019-05-29T21:56:26.579Z,1.20
2019-05-29T21:59:03.035Z,1.10
2019-05-29T22:01:23.033Z,1.17
2019-05-29T22:03:50.280Z,1.40
2019-05-29T22:06:17.656Z,1.20
2019-05-29T22:08:45.047Z,1.33
2019-05-29T22:11:12.375Z,1.10
2019-05-29T22:13:39.716Z,1.07
2019-05-29T22:16:07.023Z,1.30
2019-05-29T22:18:34.354Z,1.20
2019-05-29T22:21:01.717Z,1.23
2019-05-29T22:23:29.312Z,1.23
2019-05-29T22:25:57.388Z,1.27
2019-05-29T22:28:24.834Z,1.10
2019-05-29T22:30:53.171Z,1.27
2019-05-29T22:33:20.719Z,0.97
2019-05-29T22:35:48.000Z,1.40
2019-05-29T22:38:15.264Z,1.27
2019-05-29T22:40:42.629Z,1.30
2019-05-29T22:43:09.919Z,1.30
2019-05-29T22:45:37.197Z,1.40
2019-05-29T22:48:04.583Z,1.20
2019-05-29T22:50:31.983Z,1.30
2019-05-29T22:52:59.960Z,1.47
2019-05-29T22:55:27.237Z,1.37
2019-05-29T22:57:55.830Z,1.27
2019-05-29T23:00:23.289Z,1.10
2019-05-29T23:02:51.837Z,1.47
2019-05-29T23:05:19.330Z,1.30
2019-05-29T23:07:46.484Z,1.10
2019-05-29T23:10:13.817Z,1.10
2019-05-29T23:12:41.170Z,1.43
2019-05-29T23:15:08.862Z,1.20
2019-05-29T23:17:36.250Z,1.40
2019-05-29T23:20:04.284Z,1.30
2019-05-29T23:22:31.660Z,1.30
2019-05-29T23:24:59.251Z,1.33
2019-05-29T23:27:26.351Z,1.40
2019-05-29T23:29:54.677Z,1.30
2019-05-29T23:32:22.123Z,1.20
2019-05-29T23:34:49.417Z,1.40
2019-05-29T23:37:16.739Z,1.50
2019-05-29T23:39:44.071Z,1.37
2019-05-29T23:42:11.276Z,1.47
2019-05-29T23:44:38.612Z,1.30
2019-05-29T23:47:06.029Z,1.63
2019-05-29T23:49:33.277Z,1.47
2019-05-29T23:52:02.646Z,1.33
2019-05-29T23:54:29.736Z,1.53
2019-05-29T23:56:57.922Z,1.60
2019-05-29T23:59:25.405Z,1.30
